Time;durP1;ratioP1;P1;durP2;ratioP2;P2;SDS_P1;SDS_P2;PMS_P1;PMS_P2;Temp;Humidity;BMP_temperature;BMP_pressure;BME280_temperature;BME280_humidity;BME280_pressure;Samples;Min_cycle;Max_cycle;Signal;HPM_P1;HPM_P2
2021/04/18 00:00:42;;;;;;;32.17;8.20;;;;;;;;;;5018644;28;38507;-80
2021/04/18 00:03:08;;;;;;;18.20;7.23;;;;;;;;;;5046375;28;36013;-80
2021/04/18 00:05:35;;;;;;;22.90;7.60;;;;;;;;;;5034469;28;38772;-80
2021/04/18 00:08:02;;;;;;;20.80;7.70;;;;;;;;;;5032195;28;39128;-80
2021/04/18 00:10:35;;;;;;;17.60;7.03;;;;;;;;;;5037631;28;47082;-80
2021/04/18 00:13:05;;;;;;;27.00;8.53;;;;;;;;;;5039248;28;36966;-78
2021/04/18 00:15:32;;;;;;;23.43;8.07;;;;;;;;;;5027144;28;39444;-80
2021/04/18 00:17:58;;;;;;;27.57;9.07;;;;;;;;;;5026602;28;38724;-80
2021/04/18 00:20:25;;;;;;;29.70;9.10;;;;;;;;;;5034016;28;38044;-80
2021/04/18 00:22:51;;;;;;;24.17;8.10;;;;;;;;;;5034854;28;36381;-80
2021/04/18 00:25:18;;;;;;;28.40;9.37;;;;;;;;;;5027268;28;39071;-79
2021/04/18 00:27:46;;;;;;;29.63;10.53;;;;;;;;;;5031948;28;40019;-79
2021/04/18 00:30:15;;;;;;;25.73;9.03;;;;;;;;;;5048425;28;39954;-80
2021/04/18 00:32:41;;;;;;;25.37;8.97;;;;;;;;;;5034492;28;36918;-79
2021/04/18 00:35:08;;;;;;;21.30;9.10;;;;;;;;;;5046183;28;39394;-79
2021/04/18 00:37:35;;;;;;;30.83;10.83;;;;;;;;;;5046555;28;38090;-79
2021/04/18 00:40:02;;;;;;;29.30;11.97;;;;;;;;;;5027205;28;39767;-80
2021/04/18 00:42:28;;;;;;;27.50;9.60;;;;;;;;;;5043155;28;48169;-80
2021/04/18 00:44:54;;;;;;;15.70;8.60;;;;;;;;;;5031775;28;36340;-79
2021/04/18 00:47:21;;;;;;;27.97;11.40;;;;;;;;;;5034171;28;38656;-80
2021/04/18 00:49:47;;;;;;;31.63;10.07;;;;;;;;;;5036069;28;38296;-82
2021/04/18 00:52:14;;;;;;;27.23;10.70;;;;;;;;;;5040179;28;37255;-79
2021/04/18 00:54:40;;;;;;;29.40;11.83;;;;;;;;;;5035316;28;38169;-79
2021/04/18 00:57:07;;;;;;;33.07;9.77;;;;;;;;;;5050197;28;37196;-79
2021/04/18 00:59:34;;;;;;;32.33;11.77;;;;;;;;;;5034336;28;38158;-80
2021/04/18 01:02:01;;;;;;;39.83;12.57;;;;;;;;;;5049096;28;36306;-79
2021/04/18 01:04:27;;;;;;;25.03;9.90;;;;;;;;;;5033173;28;47350;-79
2021/04/18 01:06:54;;;;;;;23.30;9.97;;;;;;;;;;5040474;28;36978;-80
2021/04/18 01:09:20;;;;;;;23.50;11.30;;;;;;;;;;5047812;28;38173;-79
2021/04/18 01:11:46;;;;;;;25.37;12.00;;;;;;;;;;5031868;28;38697;-79
2021/04/18 01:14:13;;;;;;;21.97;9.73;;;;;;;;;;5035193;28;38951;-79
2021/04/18 01:16:39;;;;;;;24.23;10.27;;;;;;;;;;5049921;28;37066;-79
2021/04/18 01:19:05;;;;;;;35.53;13.23;;;;;;;;;;5032664;28;38049;-80
2021/04/18 01:21:32;;;;;;;24.43;11.20;;;;;;;;;;5047634;28;37561;-80
2021/04/18 01:23:58;;;;;;;33.73;12.80;;;;;;;;;;5031103;28;39185;-79
2021/04/18 01:26:25;;;;;;;25.33;9.63;;;;;;;;;;5050285;28;39021;-80
2021/04/18 01:28:51;;;;;;;21.47;9.07;;;;;;;;;;5034859;28;39568;-80
2021/04/18 01:31:17;;;;;;;28.43;10.10;;;;;;;;;;5027797;28;37834;-80
2021/04/18 01:33:44;;;;;;;27.00;11.53;;;;;;;;;;5029077;28;39268;-80
2021/04/18 01:36:10;;;;;;;19.10;10.00;;;;;;;;;;5038199;28;37346;-79
2021/04/18 01:38:38;;;;;;;34.20;13.70;;;;;;;;;;5037232;28;38821;-80
2021/04/18 01:41:08;;;;;;;20.87;11.00;;;;;;;;;;5028388;28;37664;-79
2021/04/18 01:43:34;;;;;;;30.90;13.23;;;;;;;;;;5039892;28;39444;-81
2021/04/18 01:46:00;;;;;;;39.77;13.20;;;;;;;;;;5050395;28;37986;-80
2021/04/18 01:48:27;;;;;;;37.13;14.93;;;;;;;;;;5062760;28;37055;-79
2021/04/18 01:50:53;;;;;;;34.40;12.83;;;;;;;;;;5034185;28;38528;-79
2021/04/18 01:53:20;;;;;;;40.77;14.20;;;;;;;;;;5036628;28;39072;-80
2021/04/18 01:55:47;;;;;;;27.30;11.53;;;;;;;;;;5048709;28;38723;-80
2021/04/18 01:58:14;;;;;;;27.47;10.47;;;;;;;;;;5050767;28;38169;-79
2021/04/18 02:00:40;;;;;;;33.30;13.13;;;;;;;;;;5032567;28;36298;-81
2021/04/18 02:03:07;;;;;;;33.10;14.00;;;;;;;;;;5028984;28;39385;-80
2021/04/18 02:05:34;;;;;;;33.50;13.60;;;;;;;;;;5029043;28;37877;-80
2021/04/18 02:08:00;;;;;;;33.17;14.80;;;;;;;;;;5021259;28;38798;-79
2021/04/18 02:10:27;;;;;;;35.87;12.37;;;;;;;;;;5039582;28;38288;-79
2021/04/18 02:12:53;;;;;;;36.27;13.27;;;;;;;;;;5055669;28;39425;-80
2021/04/18 02:15:19;;;;;;;42.23;13.13;;;;;;;;;;5035527;28;38122;-80
2021/04/18 02:17:46;;;;;;;30.77;10.90;;;;;;;;;;5040961;28;36677;-80
2021/04/18 02:20:16;;;;;;;38.80;13.70;;;;;;;;;;5034802;28;37997;-80
2021/04/18 02:22:45;;;;;;;37.00;13.30;;;;;;;;;;5032864;28;39117;-80
2021/04/18 02:25:13;;;;;;;32.17;10.20;;;;;;;;;;5050208;28;39306;-80
2021/04/18 02:27:39;;;;;;;22.80;9.77;;;;;;;;;;5033902;28;38760;-81
2021/04/18 02:30:06;;;;;;;29.07;11.40;;;;;;;;;;5042818;28;37132;-80
2021/04/18 02:32:33;;;;;;;39.20;12.90;;;;;;;;;;5035894;28;38667;-80
2021/04/18 02:34:59;;;;;;;21.33;9.83;;;;;;;;;;5038162;28;39034;-80
2021/04/18 02:37:26;;;;;;;31.00;10.73;;;;;;;;;;5035556;28;37649;-80
2021/04/18 02:39:52;;;;;;;39.37;12.70;;;;;;;;;;5035945;28;36945;-80
2021/04/18 02:42:18;;;;;;;19.13;9.50;;;;;;;;;;5036649;28;37596;-80
2021/04/18 02:44:45;;;;;;;31.67;13.17;;;;;;;;;;5048439;28;38892;-80
2021/04/18 02:47:11;;;;;;;33.67;10.50;;;;;;;;;;5034029;28;38543;-80
2021/04/18 02:49:37;;;;;;;30.40;11.50;;;;;;;;;;5033957;28;37476;-81
2021/04/18 02:52:04;;;;;;;38.57;12.13;;;;;;;;;;5037964;28;39021;-80
2021/04/18 02:54:30;;;;;;;38.30;12.57;;;;;;;;;;5050480;28;39284;-81
2021/04/18 02:56:57;;;;;;;29.77;11.87;;;;;;;;;;5036943;28;38980;-81
2021/04/18 02:59:24;;;;;;;27.23;11.93;;;;;;;;;;5050849;28;37247;-81
2021/04/18 03:01:50;;;;;;;33.60;12.33;;;;;;;;;;5051876;28;40470;-81
2021/04/18 03:04:16;;;;;;;30.87;12.20;;;;;;;;;;5034078;28;39957;-80
2021/04/18 03:06:43;;;;;;;32.97;13.60;;;;;;;;;;5043734;28;37216;-79
2021/04/18 03:09:09;;;;;;;23.23;11.67;;;;;;;;;;5037066;28;39064;-81
2021/04/18 03:11:36;;;;;;;30.23;13.13;;;;;;;;;;5036856;28;39292;-81
2021/04/18 03:14:02;;;;;;;24.77;11.47;;;;;;;;;;5037978;28;39521;-80
2021/04/18 03:16:29;;;;;;;30.83;11.97;;;;;;;;;;5053051;28;37082;-80
2021/04/18 03:18:55;;;;;;;32.97;11.77;;;;;;;;;;5022564;28;38266;-81
2021/04/18 03:21:21;;;;;;;22.43;10.93;;;;;;;;;;5048811;28;40622;-79
2021/04/18 03:23:48;;;;;;;21.03;11.67;;;;;;;;;;5050747;28;38390;-81
2021/04/18 03:26:14;;;;;;;24.27;12.60;;;;;;;;;;5052196;28;36902;-80
2021/04/18 03:28:41;;;;;;;30.43;12.13;;;;;;;;;;5035714;28;37055;-81
2021/04/18 03:31:07;;;;;;;33.07;15.03;;;;;;;;;;5032545;28;40020;-81
2021/04/18 03:33:34;;;;;;;30.93;14.00;;;;;;;;;;5039204;28;37940;-81
2021/04/18 03:36:00;;;;;;;26.43;12.03;;;;;;;;;;5046632;28;38962;-80
2021/04/18 03:38:28;;;;;;;29.80;14.77;;;;;;;;;;5034735;28;37317;-80
2021/04/18 03:40:55;;;;;;;24.77;10.87;;;;;;;;;;5048618;28;37900;-80
2021/04/18 03:43:21;;;;;;;35.60;14.40;;;;;;;;;;5055029;28;37667;-80
2021/04/18 03:45:47;;;;;;;30.90;13.37;;;;;;;;;;5036836;28;38310;-81
2021/04/18 03:48:14;;;;;;;30.50;12.83;;;;;;;;;;5045616;28;35802;-78
2021/04/18 03:50:40;;;;;;;26.23;12.27;;;;;;;;;;5032782;28;39950;-80
2021/04/18 03:53:07;;;;;;;31.43;13.40;;;;;;;;;;5030819;28;39458;-80
2021/04/18 03:55:33;;;;;;;37.33;16.73;;;;;;;;;;5028469;28;38838;-80
2021/04/18 03:57:59;;;;;;;42.37;17.03;;;;;;;;;;5046931;28;35778;-80
2021/04/18 04:00:26;;;;;;;40.67;18.07;;;;;;;;;;5036690;28;38868;-81
2021/04/18 04:02:52;;;;;;;30.73;15.17;;;;;;;;;;5046886;28;38809;-81
2021/04/18 04:05:18;;;;;;;41.70;14.90;;;;;;;;;;5057232;28;39288;-80
2021/04/18 04:07:45;;;;;;;34.23;16.93;;;;;;;;;;5047887;28;36740;-78
2021/04/18 04:10:12;;;;;;;28.07;11.77;;;;;;;;;;5057957;28;40390;-78
2021/04/18 04:12:39;;;;;;;38.47;16.80;;;;;;;;;;5058114;28;39536;-79
2021/04/18 04:15:06;;;;;;;32.57;13.87;;;;;;;;;;5053608;28;37967;-79
2021/04/18 04:17:33;;;;;;;30.60;14.17;;;;;;;;;;5061463;28;36100;-80
2021/04/18 04:19:59;;;;;;;31.83;16.00;;;;;;;;;;5040837;28;38719;-78
2021/04/18 04:22:26;;;;;;;32.83;16.57;;;;;;;;;;5043124;28;39991;-79
2021/04/18 04:24:53;;;;;;;34.50;14.97;;;;;;;;;;5057211;28;39841;-79
2021/04/18 04:27:19;;;;;;;26.07;12.37;;;;;;;;;;5061257;28;39317;-80
2021/04/18 04:29:47;;;;;;;28.87;12.20;;;;;;;;;;5057301;28;37893;-80
2021/04/18 04:32:13;;;;;;;26.57;12.40;;;;;;;;;;5055319;28;39343;-79
2021/04/18 04:34:40;;;;;;;28.43;11.03;;;;;;;;;;5051575;28;40198;-80
2021/04/18 04:37:07;;;;;;;24.37;11.67;;;;;;;;;;5052408;28;37007;-80
2021/04/18 04:39:33;;;;;;;30.10;13.73;;;;;;;;;;5054187;28;38727;-80
2021/04/18 04:42:01;;;;;;;37.33;13.27;;;;;;;;;;5051999;28;37508;-80
2021/04/18 04:44:29;;;;;;;23.27;10.53;;;;;;;;;;5048596;28;49198;-80
2021/04/18 04:46:55;;;;;;;25.07;12.23;;;;;;;;;;5049158;28;37016;-80
2021/04/18 04:49:23;;;;;;;34.93;14.93;;;;;;;;;;5049661;28;38824;-79
2021/04/18 04:51:50;;;;;;;27.40;13.47;;;;;;;;;;5059130;28;39001;-80
2021/04/18 04:54:17;;;;;;;32.87;15.97;;;;;;;;;;5056221;28;37883;-80
2021/04/18 04:56:43;;;;;;;27.13;10.27;;;;;;;;;;5052840;28;35712;-80
2021/04/18 04:59:10;;;;;;;30.57;14.87;;;;;;;;;;5049673;28;39832;-80
2021/04/18 05:01:36;;;;;;;26.30;11.20;;;;;;;;;;5047546;28;39297;-80
2021/04/18 05:04:03;;;;;;;26.10;13.57;;;;;;;;;;5047134;28;38741;-80
2021/04/18 05:06:29;;;;;;;38.13;13.13;;;;;;;;;;5045638;28;37545;-80
2021/04/18 05:08:56;;;;;;;34.33;15.03;;;;;;;;;;5048428;28;38721;-80
2021/04/18 05:11:22;;;;;;;31.43;15.03;;;;;;;;;;5052057;28;37847;-80
2021/04/18 05:13:49;;;;;;;32.53;15.10;;;;;;;;;;5049394;28;39137;-80
2021/04/18 05:16:15;;;;;;;27.27;13.40;;;;;;;;;;5048077;28;37976;-80
2021/04/18 05:18:43;;;;;;;30.00;14.77;;;;;;;;;;5050501;28;38673;-81
2021/04/18 05:21:10;;;;;;;38.07;17.13;;;;;;;;;;5050602;28;41443;-81
2021/04/18 05:23:36;;;;;;;29.53;14.20;;;;;;;;;;5049465;28;39963;-80
2021/04/18 05:26:03;;;;;;;34.33;15.80;;;;;;;;;;5041489;28;37117;-78
2021/04/18 05:28:29;;;;;;;43.07;16.80;;;;;;;;;;5057604;28;40122;-80
2021/04/18 05:30:57;;;;;;;34.80;16.10;;;;;;;;;;5054447;28;38373;-81
2021/04/18 05:33:23;;;;;;;31.97;14.53;;;;;;;;;;5046887;28;39394;-80
2021/04/18 05:35:50;;;;;;;25.90;14.27;;;;;;;;;;5041725;28;37078;-79
2021/04/18 05:38:17;;;;;;;30.97;14.33;;;;;;;;;;5047995;28;40824;-79
2021/04/18 05:40:43;;;;;;;31.90;17.27;;;;;;;;;;5050696;28;37543;-80
2021/04/18 05:43:10;;;;;;;44.07;16.97;;;;;;;;;;5051720;28;39953;-81
2021/04/18 05:45:36;;;;;;;38.03;17.33;;;;;;;;;;5050222;28;37661;-81
2021/04/18 05:48:03;;;;;;;30.27;17.17;;;;;;;;;;5046347;28;38043;-80
2021/04/18 05:50:29;;;;;;;31.67;16.60;;;;;;;;;;5048285;28;40138;-80
2021/04/18 05:52:55;;;;;;;38.73;17.27;;;;;;;;;;5029593;28;40432;-80
2021/04/18 05:55:22;;;;;;;33.97;17.47;;;;;;;;;;5027998;28;38573;-81
2021/04/18 05:57:48;;;;;;;39.33;18.87;;;;;;;;;;5045546;28;40187;-80
2021/04/18 06:00:15;;;;;;;36.50;18.00;;;;;;;;;;5047881;28;39106;-80
2021/04/18 06:02:41;;;;;;;48.33;19.73;;;;;;;;;;5032457;28;37172;-80
2021/04/18 06:05:08;;;;;;;42.70;19.93;;;;;;;;;;5047433;28;37690;-80
2021/04/18 06:07:35;;;;;;;41.67;18.40;;;;;;;;;;5041216;28;37654;-81
2021/04/18 06:10:01;;;;;;;30.97;15.63;;;;;;;;;;5029043;28;39612;-81
2021/04/18 06:12:28;;;;;;;37.10;15.27;;;;;;;;;;5030542;28;47217;-80
2021/04/18 06:14:54;;;;;;;31.97;15.47;;;;;;;;;;5046872;28;37919;-80
2021/04/18 06:17:20;;;;;;;26.87;13.30;;;;;;;;;;5045434;28;40215;-79
2021/04/18 06:19:47;;;;;;;23.73;11.00;;;;;;;;;;5026756;28;39901;-79
2021/04/18 06:22:13;;;;;;;25.87;10.80;;;;;;;;;;5042173;28;37610;-79
2021/04/18 06:24:39;;;;;;;28.70;11.47;;;;;;;;;;5026897;28;36127;-78
2021/04/18 06:27:06;;;;;;;25.17;8.90;;;;;;;;;;5041612;28;37828;-78
2021/04/18 06:29:33;;;;;;;15.93;7.27;;;;;;;;;;5040132;28;39762;-80
2021/04/18 06:31:59;;;;;;;25.10;10.33;;;;;;;;;;5044039;28;37201;-80
2021/04/18 06:34:25;;;;;;;20.13;7.93;;;;;;;;;;5042447;28;37477;-79
2021/04/18 06:36:52;;;;;;;32.30;11.47;;;;;;;;;;5027189;28;37611;-79
2021/04/18 06:39:19;;;;;;;20.83;9.07;;;;;;;;;;5028592;28;40921;-78
2021/04/18 06:41:55;;;;;;;17.33;7.20;;;;;;;;;;5041957;28;39965;-78
2021/04/18 06:44:22;;;;;;;19.70;7.40;;;;;;;;;;5042524;28;37611;-79
2021/04/18 06:46:49;;;;;;;19.27;7.03;;;;;;;;;;5017412;28;39764;-77
2021/04/18 06:49:15;;;;;;;23.67;7.80;;;;;;;;;;5047186;28;39559;-78
2021/04/18 06:51:42;;;;;;;25.27;9.13;;;;;;;;;;5027908;28;39998;-79
2021/04/18 06:54:10;;;;;;;19.80;7.93;;;;;;;;;;5049983;28;36690;-78
2021/04/18 06:56:36;;;;;;;15.80;6.70;;;;;;;;;;5047314;28;40711;-77
2021/04/18 06:59:04;;;;;;;18.93;7.23;;;;;;;;;;5049222;28;39269;-78
2021/04/18 07:01:30;;;;;;;18.53;7.87;;;;;;;;;;5046580;28;38324;-78
2021/04/18 07:04:13;;;;;;;18.67;7.50;;;;;;;;;;5031374;28;36746;-79
2021/04/18 07:06:40;;;;;;;16.08;7.50;;;;;;;;;;5039786;28;48957;-79
2021/04/18 07:09:07;;;;;;;16.67;6.40;;;;;;;;;;5046946;28;40525;-78
2021/04/18 07:11:43;;;;;;;15.83;6.83;;;;;;;;;;5026662;28;38624;-78
2021/04/18 07:14:22;;;;;;;17.53;7.17;;;;;;;;;;5041184;28;37215;-78
2021/04/18 07:16:48;;;;;;;20.97;6.77;;;;;;;;;;5047659;28;39155;-78
2021/04/18 07:19:25;;;;;;;19.83;6.13;;;;;;;;;;5046209;28;38572;-77
2021/04/18 07:21:52;;;;;;;19.93;7.43;;;;;;;;;;5047270;28;41561;-78
2021/04/18 07:24:19;;;;;;;18.77;6.20;;;;;;;;;;5049464;28;36143;-78
2021/04/18 07:26:56;;;;;;;12.87;5.57;;;;;;;;;;5053777;28;39483;-78
2021/04/18 07:29:23;;;;;;;20.57;6.30;;;;;;;;;;5041899;28;39258;-79
2021/04/18 07:31:50;;;;;;;18.30;5.57;;;;;;;;;;5033543;28;40296;-78
2021/04/18 07:34:18;;;;;;;19.30;7.57;;;;;;;;;;5043853;28;37538;-79
2021/04/18 07:36:45;;;;;;;18.07;7.00;;;;;;;;;;5044183;28;39503;-79
2021/04/18 07:39:13;;;;;;;17.13;7.50;;;;;;;;;;5041365;28;37453;-78
2021/04/18 07:41:41;;;;;;;24.27;9.13;;;;;;;;;;5041237;28;38718;-78
2021/04/18 07:44:14;;;;;;;27.70;10.47;;;;;;;;;;5022348;28;37987;-78
2021/04/18 07:46:43;;;;;;;18.97;10.93;;;;;;;;;;5044534;28;40746;-78
2021/04/18 07:49:10;;;;;;;20.40;12.50;;;;;;;;;;5043106;28;39284;-79
2021/04/18 07:51:36;;;;;;;18.93;12.60;;;;;;;;;;5038770;28;39075;-79
2021/04/18 07:54:02;;;;;;;23.98;14.35;;;;;;;;;;5029660;28;37398;-79
2021/04/18 07:56:29;;;;;;;23.15;12.13;;;;;;;;;;5051712;28;39503;-79
2021/04/18 07:58:57;;;;;;;18.20;11.65;;;;;;;;;;5050450;28;39219;-79
2021/04/18 08:01:24;;;;;;;24.20;11.73;;;;;;;;;;5030133;28;39453;-78
2021/04/18 08:03:51;;;;;;;20.87;10.73;;;;;;;;;;5047381;28;37645;-79
2021/04/18 08:06:18;;;;;;;21.02;9.18;;;;;;;;;;5037071;28;38962;-79
2021/04/18 08:08:49;;;;;;;22.52;8.82;;;;;;;;;;5045868;28;39521;-78
2021/04/18 08:11:16;;;;;;;15.10;7.88;;;;;;;;;;5039250;28;38422;-79
2021/04/18 08:13:45;;;;;;;19.95;8.32;;;;;;;;;;5025252;28;36504;-78
2021/04/18 08:16:11;;;;;;;17.45;8.25;;;;;;;;;;5041701;28;39135;-79
2021/04/18 08:18:42;;;;;;;15.73;7.00;;;;;;;;;;5051589;28;38861;-78
2021/04/18 08:21:26;;;;;;;13.43;7.30;;;;;;;;;;5053021;28;38685;-79
2021/04/18 08:23:53;;;;;;;14.82;7.50;;;;;;;;;;5042810;28;37060;-79
2021/04/18 08:26:21;;;;;;;13.43;7.68;;;;;;;;;;5040630;28;37779;-79
2021/04/18 08:28:54;;;;;;;16.48;8.82;;;;;;;;;;5040179;28;39513;-79
2021/04/18 08:31:20;;;;;;;;;;;;;;;;;;5037541;28;37880;-79
2021/04/18 08:33:49;;;;;;;16.30;7.70;;;;;;;;;;5042987;28;36113;-79
2021/04/18 08:36:18;;;;;;;18.33;6.93;;;;;;;;;;5025799;28;37394;-79
2021/04/18 08:38:46;;;;;;;16.92;7.85;;;;;;;;;;5043442;28;38027;-79
2021/04/18 08:41:15;;;;;;;17.10;8.27;;;;;;;;;;5033159;28;39470;-79
2021/04/18 08:43:46;;;;;;;14.55;8.05;;;;;;;;;;5026164;28;36858;-79
2021/04/18 08:46:13;;;;;;;18.23;9.00;;;;;;;;;;5050054;28;38877;-78
2021/04/18 08:48:39;;;;;;;19.00;9.43;;;;;;;;;;5056371;28;39752;-79
2021/04/18 08:51:08;;;;;;;19.60;9.60;;;;;;;;;;5046775;28;36450;-79
2021/04/18 08:53:54;;;;;;;17.85;9.02;;;;;;;;;;5044415;28;37975;-77
2021/04/18 08:56:20;;;;;;;19.02;10.65;;;;;;;;;;5033060;28;38081;-78
2021/04/18 08:58:46;;;;;;;18.42;9.77;;;;;;;;;;5022294;28;37811;-79
2021/04/18 09:01:15;;;;;;;12.77;8.40;;;;;;;;;;5035498;28;39592;-79
2021/04/18 09:03:59;;;;;;;21.77;9.35;;;;;;;;;;5043736;28;37810;-79
2021/04/18 09:06:33;;;;;;;22.40;10.52;;;;;;;;;;5043803;28;38971;-80
2021/04/18 09:08:59;;;;;;;17.05;9.73;;;;;;;;;;5027336;28;39570;-79
2021/04/18 09:11:26;;;;;;;23.98;10.20;;;;;;;;;;5049674;28;38512;-79
2021/04/18 09:13:57;;;;;;;20.35;10.40;;;;;;;;;;5034122;28;35849;-79
2021/04/18 09:16:28;;;;;;;17.50;9.15;;;;;;;;;;5030873;28;38128;-79
2021/04/18 09:19:14;;;;;;;19.52;9.15;;;;;;;;;;5042531;28;39016;-79
2021/04/18 09:21:41;;;;;;;15.82;8.05;;;;;;;;;;5040541;28;47217;-80
2021/04/18 09:24:07;;;;;;;15.63;8.75;;;;;;;;;;5032458;28;37294;-79
2021/04/18 09:26:34;;;;;;;13.57;7.53;;;;;;;;;;5038777;28;39217;-79
2021/04/18 09:29:10;;;;;;;18.75;8.15;;;;;;;;;;5053002;28;39175;-78
2021/04/18 09:31:52;;;;;;;17.42;8.32;;;;;;;;;;5055825;28;48478;-78
2021/04/18 09:34:19;;;;;;;12.45;7.57;;;;;;;;;;5047496;28;37620;-79
2021/04/18 09:36:45;;;;;;;15.93;6.97;;;;;;;;;;5038963;28;39847;-78
2021/04/18 09:39:12;;;;;;;15.50;8.00;;;;;;;;;;5047639;28;39778;-78
2021/04/18 09:41:39;;;;;;;12.50;7.32;;;;;;;;;;5024822;28;38985;-78
2021/04/18 09:44:06;;;;;;;15.10;7.07;;;;;;;;;;5044902;28;36215;-79
2021/04/18 09:46:43;;;;;;;11.20;6.22;;;;;;;;;;5032287;28;39438;-78
2021/04/18 09:49:09;;;;;;;14.27;6.03;;;;;;;;;;5047714;28;40055;-79
2021/04/18 09:52:02;;;;;;;11.50;5.80;;;;;;;;;;5050581;28;38295;-78
2021/04/18 09:54:33;;;;;;;18.02;7.25;;;;;;;;;;5040664;28;47175;-78
2021/04/18 09:57:16;;;;;;;15.20;6.53;;;;;;;;;;5033243;28;37461;-78
2021/04/18 09:59:43;;;;;;;11.60;6.05;;;;;;;;;;5039393;28;47162;-78
2021/04/18 10:02:10;;;;;;;14.82;6.28;;;;;;;;;;5026195;28;39096;-77
2021/04/18 10:04:36;;;;;;;13.95;5.55;;;;;;;;;;5047585;28;36731;-78
2021/04/18 10:07:03;;;;;;;11.75;6.50;;;;;;;;;;5048963;28;38709;-77
2021/04/18 10:09:48;;;;;;;16.70;6.65;;;;;;;;;;5049517;28;39118;-78
2021/04/18 10:12:15;;;;;;;9.68;5.20;;;;;;;;;;5043136;28;40585;-78
2021/04/18 10:14:42;;;;;;;12.20;6.07;;;;;;;;;;5045853;28;37200;-78
2021/04/18 10:17:08;;;;;;;12.27;6.60;;;;;;;;;;5046471;28;40579;-77
2021/04/18 10:19:35;;;;;;;10.82;6.60;;;;;;;;;;5046991;28;40484;-76
2021/04/18 10:22:04;;;;;;;10.68;5.50;;;;;;;;;;5040461;28;36599;-76
2021/04/18 10:24:37;;;;;;;11.43;6.40;;;;;;;;;;5036938;28;48601;-79
2021/04/18 10:27:03;;;;;;;;;;;;;;;;;;5042113;28;39085;-78
2021/04/18 10:29:30;;;;;;;12.70;5.93;;;;;;;;;;5039351;28;39875;-77
2021/04/18 10:31:56;;;;;;;12.73;6.05;;;;;;;;;;5045485;28;38978;-78
2021/04/18 10:34:23;;;;;;;12.88;5.97;;;;;;;;;;5028374;28;35677;-79
2021/04/18 10:36:49;;;;;;;12.88;5.30;;;;;;;;;;5030481;28;39334;-79
2021/04/18 10:39:17;;;;;;;15.52;6.60;;;;;;;;;;5031083;28;39256;-78
2021/04/18 10:41:43;;;;;;;16.73;6.15;;;;;;;;;;5045773;28;37282;-80
2021/04/18 10:44:15;;;;;;;14.18;5.72;;;;;;;;;;5046381;28;37239;-78
2021/04/18 10:46:42;;;;;;;14.07;5.35;;;;;;;;;;5047166;28;39105;-78
2021/04/18 10:49:08;;;;;;;14.15;5.65;;;;;;;;;;5029350;28;39363;-79
2021/04/18 10:51:35;;;;;;;10.60;5.15;;;;;;;;;;5037086;28;38287;-78
2021/04/18 10:54:03;;;;;;;15.93;6.15;;;;;;;;;;5027343;28;36728;-77
2021/04/18 10:56:31;;;;;;;11.95;5.95;;;;;;;;;;5036663;28;39479;-78
2021/04/18 10:58:58;;;;;;;11.80;6.63;;;;;;;;;;5045648;28;39923;-79
2021/04/18 11:01:25;;;;;;;12.45;5.32;;;;;;;;;;5027406;28;38548;-78
2021/04/18 11:03:51;;;;;;;8.50;4.55;;;;;;;;;;5049018;28;37120;-78
2021/04/18 11:06:18;;;;;;;12.85;4.85;;;;;;;;;;5046210;28;38757;-79
2021/04/18 11:08:44;;;;;;;12.02;5.93;;;;;;;;;;5016724;28;37987;-79
2021/04/18 11:11:14;;;;;;;13.55;5.63;;;;;;;;;;5027259;28;37613;-77
2021/04/18 11:13:40;;;;;;;13.13;5.65;;;;;;;;;;5044930;28;36112;-77
2021/04/18 11:16:07;;;;;;;15.55;5.25;;;;;;;;;;5051027;28;39526;-79
2021/04/18 11:18:33;;;;;;;11.93;4.93;;;;;;;;;;5021948;28;37692;-79
2021/04/18 11:21:00;;;;;;;14.57;5.18;;;;;;;;;;5048108;28;39565;-78
2021/04/18 11:23:26;;;;;;;13.20;5.47;;;;;;;;;;5034565;28;36239;-78
2021/04/18 11:25:52;;;;;;;15.38;5.28;;;;;;;;;;5052485;28;39281;-78
2021/04/18 11:28:19;;;;;;;12.10;4.85;;;;;;;;;;5022901;28;38486;-77
2021/04/18 11:30:45;;;;;;;11.23;4.90;;;;;;;;;;5052075;28;39529;-78
2021/04/18 11:33:12;;;;;;;10.80;4.63;;;;;;;;;;5049034;28;36932;-78
2021/04/18 11:35:38;;;;;;;12.40;4.70;;;;;;;;;;5032731;28;39107;-78
2021/04/18 11:38:05;;;;;;;10.70;4.57;;;;;;;;;;5039750;28;38569;-76
2021/04/18 11:40:31;;;;;;;15.38;5.85;;;;;;;;;;5026479;28;38111;-76
2021/04/18 11:43:01;;;;;;;12.45;5.00;;;;;;;;;;5031570;28;35767;-76
2021/04/18 11:45:31;;;;;;;11.25;5.07;;;;;;;;;;5039730;28;48250;-77
2021/04/18 11:47:57;;;;;;;11.45;5.05;;;;;;;;;;5047412;28;39524;-77
2021/04/18 11:50:24;;;;;;;12.80;4.68;;;;;;;;;;5036817;28;38770;-78
2021/04/18 11:52:50;;;;;;;12.25;5.10;;;;;;;;;;5026670;28;36006;-79
2021/04/18 11:55:22;;;;;;;10.35;5.43;;;;;;;;;;5036339;28;38926;-77
2021/04/18 11:57:48;;;;;;;13.73;5.55;;;;;;;;;;5028886;28;38127;-77
2021/04/18 12:00:15;;;;;;;11.13;5.35;;;;;;;;;;5027564;28;39154;-77
2021/04/18 12:02:43;;;;;;;15.40;6.35;;;;;;;;;;5046646;28;35543;-77
2021/04/18 12:05:10;;;;;;;12.90;5.32;;;;;;;;;;5042202;28;38813;-76
2021/04/18 12:07:36;;;;;;;11.23;5.00;;;;;;;;;;5038882;28;37578;-77
2021/04/18 12:10:04;;;;;;;9.45;5.07;;;;;;;;;;5019699;28;37184;-76
2021/04/18 12:12:30;;;;;;;13.15;5.03;;;;;;;;;;5041047;28;36526;-78
2021/04/18 12:14:56;;;;;;;11.38;4.57;;;;;;;;;;5051410;28;38644;-77
2021/04/18 12:17:23;;;;;;;11.38;5.35;;;;;;;;;;5052070;28;38834;-77
2021/04/18 12:19:49;;;;;;;11.27;5.18;;;;;;;;;;5052129;28;38958;-79
2021/04/18 12:22:15;;;;;;;9.68;4.85;;;;;;;;;;5049818;28;35830;-79
2021/04/18 12:24:42;;;;;;;13.05;5.05;;;;;;;;;;5052744;28;38941;-78
2021/04/18 12:27:09;;;;;;;10.73;5.43;;;;;;;;;;5048781;28;37649;-78
2021/04/18 12:29:35;;;;;;;9.77;4.55;;;;;;;;;;5047541;28;38635;-78
2021/04/18 12:32:02;;;;;;;16.75;5.20;;;;;;;;;;5045884;28;36991;-77
2021/04/18 12:34:28;;;;;;;12.27;5.38;;;;;;;;;;5048173;28;37650;-77
2021/04/18 12:36:55;;;;;;;17.30;6.05;;;;;;;;;;5046741;28;37907;-76
2021/04/18 12:39:22;;;;;;;13.40;5.75;;;;;;;;;;5040317;28;20576;-81
2021/04/18 12:41:48;;;;;;;15.43;5.68;;;;;;;;;;5032813;28;35721;-82
2021/04/18 12:44:14;;;;;;;14.23;6.20;;;;;;;;;;5049474;28;37776;-82
2021/04/18 12:46:41;;;;;;;9.90;5.22;;;;;;;;;;5030121;28;38689;-82
2021/04/18 12:49:07;;;;;;;11.10;5.15;;;;;;;;;;5056395;28;37598;-82
2021/04/18 12:51:34;;;;;;;12.35;5.88;;;;;;;;;;5040929;28;37228;-82
2021/04/18 12:54:02;;;;;;;11.35;5.53;;;;;;;;;;5058683;28;39921;-82
2021/04/18 12:56:30;;;;;;;12.63;6.00;;;;;;;;;;5057141;28;48940;-82
2021/04/18 12:58:56;;;;;;;9.32;5.03;;;;;;;;;;5056742;28;39153;-81
2021/04/18 13:01:23;;;;;;;13.57;5.25;;;;;;;;;;5042855;28;35921;-81
2021/04/18 13:03:49;;;;;;;11.32;5.70;;;;;;;;;;5059763;28;37688;-82
2021/04/18 13:06:16;;;;;;;12.20;5.30;;;;;;;;;;5039146;28;39403;-80
2021/04/18 13:08:44;;;;;;;9.70;4.97;;;;;;;;;;5037918;28;37908;-82
2021/04/18 13:11:11;;;;;;;14.30;6.10;;;;;;;;;;5033133;28;35714;-80
2021/04/18 13:13:37;;;;;;;8.55;5.05;;;;;;;;;;5038773;28;39176;-81
2021/04/18 13:16:04;;;;;;;8.70;5.10;;;;;;;;;;5039612;28;39220;-81
2021/04/18 13:18:30;;;;;;;10.50;5.32;;;;;;;;;;5031796;28;39296;-81
2021/04/18 13:20:57;;;;;;;11.52;5.68;;;;;;;;;;5035617;28;37271;-81
2021/04/18 13:23:24;;;;;;;9.05;5.20;;;;;;;;;;5040951;28;39979;-81
2021/04/18 13:25:51;;;;;;;14.35;5.70;;;;;;;;;;5067073;28;39074;-80
2021/04/18 13:28:18;;;;;;;11.20;5.18;;;;;;;;;;5057745;28;37445;-80
2021/04/18 13:30:45;;;;;;;12.35;5.97;;;;;;;;;;5066955;28;35491;-82
2021/04/18 13:33:11;;;;;;;12.02;5.45;;;;;;;;;;5042223;28;39343;-81
2021/04/18 13:35:39;;;;;;;11.30;5.55;;;;;;;;;;5046466;28;38540;-81
2021/04/18 13:38:06;;;;;;;9.73;5.30;;;;;;;;;;5041937;28;38864;-81
2021/04/18 13:40:36;;;;;;;15.23;6.63;;;;;;;;;;5048668;28;37635;-81
2021/04/18 13:43:02;;;;;;;10.93;5.45;;;;;;;;;;5049486;28;40169;-79
2021/04/18 13:45:29;;;;;;;10.63;5.05;;;;;;;;;;5045755;28;38680;-82
2021/04/18 13:47:55;;;;;;;10.63;5.32;;;;;;;;;;5074491;28;38720;-81
2021/04/18 13:50:22;;;;;;;12.35;5.50;;;;;;;;;;5042874;28;37240;-81
2021/04/18 13:52:48;;;;;;;16.05;6.20;;;;;;;;;;5039788;28;40663;-81
2021/04/18 13:55:15;;;;;;;15.55;6.32;;;;;;;;;;5025051;28;37961;-81
2021/04/18 13:57:42;;;;;;;12.93;6.28;;;;;;;;;;5046828;28;37548;-79
2021/04/18 14:00:10;;;;;;;11.82;5.90;;;;;;;;;;5022794;28;36819;-80
2021/04/18 14:02:36;;;;;;;11.02;5.53;;;;;;;;;;5040423;28;40790;-80
2021/04/18 14:05:03;;;;;;;13.35;5.80;;;;;;;;;;5026185;28;38936;-79
2021/04/18 14:07:30;;;;;;;12.02;5.72;;;;;;;;;;5006254;28;39054;-79
2021/04/18 14:09:57;;;;;;;16.52;6.25;;;;;;;;;;5007403;28;37053;-80
2021/04/18 14:12:24;;;;;;;16.73;6.38;;;;;;;;;;5010235;28;38991;-80
2021/04/18 14:14:50;;;;;;;11.75;5.45;;;;;;;;;;5024046;28;37916;-79
2021/04/18 14:17:17;;;;;;;13.60;6.50;;;;;;;;;;5023020;28;37258;-80
2021/04/18 14:19:45;;;;;;;16.00;6.63;;;;;;;;;;5012480;28;37155;-81
2021/04/18 14:22:11;;;;;;;12.65;6.25;;;;;;;;;;5011052;28;39823;-81
2021/04/18 14:24:37;;;;;;;15.50;7.80;;;;;;;;;;5013897;28;39143;-81
2021/04/18 14:27:06;;;;;;;14.35;6.53;;;;;;;;;;5038594;28;38376;-80